createdAt,value
2024-01-21T00:00:35.034Z,100.00
2024-01-21T00:03:04.599Z,100.00
2024-01-21T00:05:35.140Z,100.00
2024-01-21T00:08:07.299Z,100.00
2024-01-21T00:10:36.496Z,100.00
2024-01-21T00:13:07.319Z,100.00
2024-01-21T00:15:36.904Z,100.00
2024-01-21T00:18:06.856Z,100.00
2024-01-21T00:20:38.566Z,100.00
2024-01-21T00:23:08.797Z,100.00
2024-01-21T00:25:38.857Z,100.00
2024-01-21T00:28:08.301Z,100.00
2024-01-21T00:30:37.566Z,100.00
2024-01-21T00:33:08.804Z,100.00
2024-01-21T00:35:39.995Z,100.00
2024-01-21T00:38:09.522Z,100.00
2024-01-21T00:40:41.350Z,100.00
2024-01-21T00:43:11.413Z,100.00
2024-01-21T00:45:40.615Z,100.00
2024-01-21T00:48:10.263Z,100.00
2024-01-21T00:50:41.125Z,100.00
2024-01-21T00:53:10.240Z,100.00
2024-01-21T00:55:39.023Z,100.00
2024-01-21T00:58:08.270Z,100.00
2024-01-21T01:00:42.009Z,100.00
2024-01-21T01:03:11.693Z,100.00
2024-01-21T01:05:42.380Z,100.00
2024-01-21T01:08:11.581Z,100.00
2024-01-21T01:10:41.930Z,100.00
2024-01-21T01:13:10.863Z,100.00
2024-01-21T01:15:40.865Z,100.00
2024-01-21T01:18:10.328Z,100.00
2024-01-21T01:20:39.319Z,100.00
2024-01-21T01:23:09.842Z,100.00
2024-01-21T01:25:39.240Z,100.00
2024-01-21T01:28:08.662Z,100.00
2024-01-21T01:30:40.319Z,100.00
2024-01-21T01:33:10.159Z,100.00
2024-01-21T01:35:39.719Z,100.00
2024-01-21T01:38:13.697Z,100.00
2024-01-21T01:40:43.008Z,100.00
2024-01-21T01:43:12.500Z,100.00
2024-01-21T01:45:41.781Z,100.00
2024-01-21T01:48:10.958Z,100.00
2024-01-21T01:50:40.117Z,100.00
2024-01-21T01:53:10.893Z,100.00
2024-01-21T01:55:40.125Z,100.00
2024-01-21T01:58:09.610Z,100.00
2024-01-21T02:00:39.672Z,100.00
2024-01-21T02:03:09.388Z,100.00
2024-01-21T02:05:40.986Z,100.00
2024-01-21T02:08:11.449Z,100.00
2024-01-21T02:10:40.693Z,100.00
2024-01-21T02:13:11.746Z,100.00
2024-01-21T02:15:41.779Z,100.00
2024-01-21T02:18:11.142Z,100.00
2024-01-21T02:20:41.564Z,100.00
2024-01-21T02:23:12.084Z,100.00
2024-01-21T02:25:42.017Z,100.00
2024-01-21T02:28:12.263Z,100.00
2024-01-21T02:30:43.421Z,100.00
2024-01-21T02:33:15.531Z,100.00
2024-01-21T02:35:46.091Z,100.00
2024-01-21T02:38:20.714Z,100.00
2024-01-21T02:40:51.169Z,100.00
2024-01-21T02:43:20.529Z,100.00
2024-01-21T02:45:51.781Z,100.00
2024-01-21T02:48:22.994Z,100.00
2024-01-21T02:50:53.362Z,100.00
2024-01-21T02:53:23.715Z,100.00
2024-01-21T02:55:53.057Z,100.00
2024-01-21T02:58:22.314Z,100.00
2024-01-21T03:00:52.026Z,100.00
2024-01-21T03:03:21.524Z,100.00
2024-01-21T03:05:50.535Z,100.00
2024-01-21T03:08:20.678Z,100.00
2024-01-21T03:10:51.797Z,100.00
2024-01-21T03:13:20.863Z,100.00
2024-01-21T03:15:50.155Z,100.00
2024-01-21T03:18:19.377Z,100.00
2024-01-21T03:20:49.607Z,100.00
2024-01-21T03:23:20.207Z,100.00
2024-01-21T03:25:50.718Z,100.00
2024-01-21T03:28:21.144Z,100.00
2024-01-21T03:30:50.258Z,100.00
2024-01-21T03:33:19.359Z,100.00
2024-01-21T03:35:49.856Z,100.00
2024-01-21T03:38:21.207Z,100.00
2024-01-21T03:40:52.047Z,100.00
2024-01-21T03:43:20.953Z,100.00
2024-01-21T03:45:51.320Z,100.00
2024-01-21T03:48:20.693Z,100.00
2024-01-21T03:50:49.960Z,100.00
2024-01-21T03:53:20.618Z,100.00
2024-01-21T03:55:51.236Z,100.00
2024-01-21T03:58:20.054Z,100.00
2024-01-21T04:00:49.233Z,100.00
2024-01-21T04:03:19.978Z,100.00
2024-01-21T04:05:49.437Z,100.00
2024-01-21T04:08:18.845Z,100.00
2024-01-21T04:10:48.791Z,100.00
2024-01-21T04:13:20.486Z,100.00
2024-01-21T04:15:49.908Z,100.00
2024-01-21T04:18:21.558Z,100.00
2024-01-21T04:20:51.219Z,100.00
2024-01-21T04:23:20.830Z,100.00
2024-01-21T04:25:51.509Z,100.00
2024-01-21T04:28:21.896Z,100.00
2024-01-21T04:30:51.681Z,100.00
2024-01-21T04:33:20.871Z,100.00
2024-01-21T04:35:49.875Z,100.00
2024-01-21T04:38:19.252Z,100.00
2024-01-21T04:40:49.015Z,100.00
2024-01-21T04:43:18.365Z,100.00
2024-01-21T04:45:50.014Z,100.00
2024-01-21T04:48:19.609Z,100.00
2024-01-21T04:50:53.159Z,100.00
2024-01-21T04:53:22.753Z,100.00
2024-01-21T04:55:53.181Z,100.00
2024-01-21T04:58:29.200Z,100.00
2024-01-21T05:00:59.999Z,100.00
2024-01-21T05:03:29.479Z,100.00
2024-01-21T05:05:59.592Z,100.00
2024-01-21T05:08:28.604Z,100.00
2024-01-21T05:10:58.426Z,100.00
2024-01-21T05:13:30.677Z,100.00
2024-01-21T05:16:01.821Z,100.00
2024-01-21T05:18:30.901Z,100.00
2024-01-21T05:20:59.754Z,100.00
2024-01-21T05:23:29.108Z,100.00
2024-01-21T05:25:58.255Z,100.00
2024-01-21T05:28:27.250Z,100.00
2024-01-21T05:30:57.518Z,100.00
2024-01-21T05:33:28.320Z,100.00
2024-01-21T05:35:57.914Z,100.00
2024-01-21T05:38:27.099Z,100.00
2024-01-21T05:40:56.087Z,100.00
2024-01-21T05:43:25.442Z,100.00
2024-01-21T05:45:55.125Z,100.00
2024-01-21T05:48:24.591Z,100.00
2024-01-21T05:50:55.435Z,100.00
2024-01-21T05:53:24.867Z,100.00
2024-01-21T05:55:54.391Z,100.00
2024-01-21T05:58:24.636Z,100.00
2024-01-21T06:00:53.498Z,100.00
2024-01-21T06:03:24.611Z,100.00
2024-01-21T06:05:55.516Z,100.00
2024-01-21T06:08:24.622Z,100.00
2024-01-21T06:10:53.889Z,100.00
2024-01-21T06:13:23.604Z,100.00
2024-01-21T06:15:53.073Z,100.00
2024-01-21T06:18:22.650Z,100.00
2024-01-21T06:20:53.103Z,100.00
2024-01-21T06:23:24.139Z,100.00
2024-01-21T06:25:53.804Z,98.73
2024-01-21T06:28:23.024Z,99.56
2024-01-21T06:30:52.143Z,99.71
2024-01-21T06:33:21.943Z,99.98
2024-01-21T06:35:51.926Z,99.28
2024-01-21T06:38:21.356Z,98.67
2024-01-21T06:40:53.267Z,98.64
2024-01-21T06:43:22.527Z,98.40
2024-01-21T06:45:52.298Z,97.91
2024-01-21T06:48:21.357Z,96.94
2024-01-21T06:50:52.480Z,95.68
2024-01-21T06:53:21.521Z,92.42
2024-01-21T06:55:52.203Z,91.20
2024-01-21T06:58:21.381Z,91.34
2024-01-21T07:00:53.383Z,90.06
2024-01-21T07:03:22.594Z,89.32
2024-01-21T07:05:52.106Z,89.30
2024-01-21T07:08:21.170Z,87.62
2024-01-21T07:10:51.812Z,87.61
2024-01-21T07:13:20.830Z,86.86
2024-01-21T07:15:50.111Z,86.20
2024-01-21T07:18:20.394Z,85.58
2024-01-21T07:20:50.136Z,84.52
2024-01-21T07:23:19.366Z,84.62
2024-01-21T07:25:49.444Z,83.61
2024-01-21T07:28:19.818Z,83.66
2024-01-21T07:30:48.970Z,83.22
2024-01-21T07:33:18.173Z,82.85
2024-01-21T07:35:51.357Z,83.33
2024-01-21T07:38:20.786Z,83.98
2024-01-21T07:40:50.661Z,82.44
2024-01-21T07:43:21.677Z,82.43
2024-01-21T07:45:53.660Z,82.42
2024-01-21T07:48:23.036Z,82.13
2024-01-21T07:50:52.533Z,81.70
2024-01-21T07:53:21.642Z,82.00
2024-01-21T07:55:51.132Z,81.89
2024-01-21T07:58:23.376Z,81.94
2024-01-21T08:00:52.595Z,82.05
2024-01-21T08:03:22.008Z,82.09
2024-01-21T08:05:51.779Z,82.09
2024-01-21T08:08:20.760Z,82.01
2024-01-21T08:10:49.561Z,83.96
2024-01-21T08:13:18.754Z,81.76
2024-01-21T08:15:49.565Z,81.41
2024-01-21T08:18:20.817Z,81.06
2024-01-21T08:20:50.399Z,80.89
2024-01-21T08:23:21.326Z,80.68
2024-01-21T08:25:52.572Z,80.66
2024-01-21T08:28:21.941Z,79.18
2024-01-21T08:30:52.636Z,78.50
2024-01-21T08:33:21.848Z,77.65
2024-01-21T08:35:51.003Z,76.70
2024-01-21T08:38:20.623Z,76.43
2024-01-21T08:40:50.093Z,74.38
2024-01-21T08:43:19.483Z,72.34
2024-01-21T08:45:50.784Z,71.70
2024-01-21T08:48:21.728Z,69.11
2024-01-21T08:50:53.883Z,68.72
2024-01-21T08:53:24.659Z,68.37
2024-01-21T08:55:54.798Z,69.16
2024-01-21T08:58:24.708Z,68.29
2024-01-21T09:00:54.014Z,64.87
2024-01-21T09:03:24.941Z,63.18
2024-01-21T09:05:54.269Z,61.25
2024-01-21T09:08:23.580Z,62.50
2024-01-21T09:10:52.548Z,63.47
2024-01-21T09:13:21.594Z,64.24
2024-01-21T09:15:50.516Z,66.20
2024-01-21T09:18:20.940Z,68.01
2024-01-21T09:20:51.567Z,68.93
2024-01-21T09:23:21.153Z,70.29
2024-01-21T09:25:51.445Z,72.27
2024-01-21T09:28:24.513Z,72.15
2024-01-21T09:30:53.583Z,71.43
2024-01-21T09:33:22.636Z,71.05
2024-01-21T09:35:53.148Z,69.85
2024-01-21T09:38:22.820Z,67.38
2024-01-21T09:41:00.316Z,65.84
2024-01-21T09:43:31.146Z,61.94
2024-01-21T09:46:00.662Z,56.95
2024-01-21T09:48:31.731Z,56.16
2024-01-21T09:51:04.045Z,56.16
2024-01-21T09:53:37.736Z,56.67
2024-01-21T09:56:11.706Z,57.61
2024-01-21T09:58:48.061Z,57.52
2024-01-21T10:01:18.716Z,57.77
2024-01-21T10:03:48.772Z,56.98
2024-01-21T10:06:20.043Z,59.19
2024-01-21T10:08:51.134Z,59.18
2024-01-21T10:11:21.440Z,60.50
2024-01-21T10:13:50.408Z,61.79
2024-01-21T10:16:21.146Z,61.44
2024-01-21T10:18:50.477Z,62.04
2024-01-21T10:21:21.987Z,62.73
2024-01-21T10:23:53.044Z,62.59
2024-01-21T10:26:22.480Z,64.00
2024-01-21T10:28:51.652Z,65.25
2024-01-21T10:31:20.694Z,65.68
2024-01-21T10:33:50.568Z,66.79
2024-01-21T10:36:25.363Z,65.48
2024-01-21T10:38:57.898Z,64.66
2024-01-21T10:41:32.553Z,63.29
2024-01-21T10:44:03.644Z,63.36
2024-01-21T10:46:35.867Z,63.81
2024-01-21T10:49:07.292Z,63.24
2024-01-21T10:51:42.461Z,62.64
2024-01-21T10:54:13.786Z,62.35
2024-01-21T10:56:45.120Z,63.13
2024-01-21T10:59:14.611Z,63.25
2024-01-21T11:01:45.623Z,63.05
2024-01-21T11:04:16.459Z,63.60
2024-01-21T11:06:51.784Z,63.42
2024-01-21T11:09:28.061Z,62.96
2024-01-21T11:11:58.073Z,62.29
2024-01-21T11:14:31.751Z,60.78
2024-01-21T11:17:04.932Z,58.93
2024-01-21T11:19:41.049Z,56.66
2024-01-21T11:22:16.244Z,55.40
2024-01-21T11:24:48.266Z,55.20
2024-01-21T11:27:18.464Z,53.27
2024-01-21T11:29:50.401Z,53.64
2024-01-21T11:32:27.446Z,52.34
2024-01-21T11:35:04.364Z,51.42
2024-01-21T11:37:35.426Z,52.25
2024-01-21T11:40:06.025Z,53.09
2024-01-21T11:42:36.617Z,54.86
2024-01-21T11:45:07.529Z,54.67
2024-01-21T11:47:37.915Z,54.30
2024-01-21T11:50:08.949Z,54.71
2024-01-21T11:52:39.371Z,56.04
2024-01-21T11:55:08.839Z,56.29
2024-01-21T11:57:38.094Z,56.76
2024-01-21T12:00:08.733Z,57.78
2024-01-21T12:02:42.321Z,58.31
2024-01-21T12:05:11.960Z,58.82
2024-01-21T12:07:42.942Z,58.70
2024-01-21T12:10:14.416Z,58.52
2024-01-21T12:12:45.292Z,59.06
2024-01-21T12:15:15.026Z,58.35
2024-01-21T12:17:55.600Z,57.77
2024-01-21T12:20:26.065Z,57.69
2024-01-21T12:22:59.668Z,58.58
2024-01-21T12:25:28.457Z,58.58
2024-01-21T12:27:59.465Z,58.68
2024-01-21T12:30:28.849Z,58.36
2024-01-21T12:32:59.603Z,57.22
2024-01-21T12:35:29.909Z,56.70
2024-01-21T12:38:01.535Z,57.34
2024-01-21T12:40:30.794Z,57.22
2024-01-21T12:42:59.771Z,57.82
2024-01-21T12:45:31.355Z,57.42
2024-01-21T12:48:02.157Z,57.77
2024-01-21T12:50:32.894Z,57.90
2024-01-21T12:53:03.214Z,58.93
2024-01-21T12:55:32.352Z,58.69
2024-01-21T12:58:01.805Z,59.94
2024-01-21T13:00:31.517Z,60.56
2024-01-21T13:03:01.128Z,60.75
2024-01-21T13:05:30.842Z,60.63
2024-01-21T13:08:01.430Z,62.07
2024-01-21T13:10:33.589Z,60.51
2024-01-21T13:13:03.157Z,59.89
2024-01-21T13:15:32.671Z,60.02
2024-01-21T13:18:02.007Z,59.96
2024-01-21T13:20:31.215Z,59.48
2024-01-21T13:23:00.685Z,58.89
2024-01-21T13:25:30.411Z,58.35
2024-01-21T13:28:15.432Z,58.81
2024-01-21T13:30:45.595Z,59.28
2024-01-21T13:33:16.070Z,59.24
2024-01-21T13:35:46.803Z,59.19
2024-01-21T13:38:18.788Z,58.76
2024-01-21T13:40:48.464Z,58.49
2024-01-21T13:43:20.330Z,59.03
2024-01-21T13:45:50.559Z,59.69
2024-01-21T13:48:22.802Z,58.97
2024-01-21T13:50:52.911Z,58.94
2024-01-21T13:53:23.312Z,59.09
2024-01-21T13:55:53.973Z,59.41
2024-01-21T13:58:24.559Z,59.90
2024-01-21T14:00:54.214Z,59.51
2024-01-21T14:03:24.107Z,59.71
2024-01-21T14:05:54.968Z,59.94
2024-01-21T14:08:23.896Z,59.71
2024-01-21T14:10:53.730Z,59.00
2024-01-21T14:13:22.970Z,59.19
2024-01-21T14:15:54.852Z,59.70
2024-01-21T14:18:25.903Z,58.68
2024-01-21T14:20:55.182Z,58.49
2024-01-21T14:23:25.731Z,57.95
2024-01-21T14:25:56.847Z,58.92
2024-01-21T14:28:26.340Z,58.79
2024-01-21T14:30:57.055Z,59.59
2024-01-21T14:33:28.174Z,59.70
2024-01-21T14:35:57.418Z,59.49
2024-01-21T14:38:26.519Z,59.83
2024-01-21T14:40:56.589Z,59.99
2024-01-21T14:43:27.141Z,60.83
2024-01-21T14:45:59.297Z,60.70
2024-01-21T14:48:28.673Z,61.40
2024-01-21T14:51:00.174Z,61.75
2024-01-21T14:53:29.798Z,61.96
2024-01-21T14:55:59.796Z,62.20
2024-01-21T14:58:30.201Z,63.47
2024-01-21T15:01:00.863Z,62.95
2024-01-21T15:03:29.880Z,63.35
2024-01-21T15:06:00.748Z,64.67
2024-01-21T15:08:32.527Z,63.91
2024-01-21T15:11:01.908Z,63.89
2024-01-21T15:13:33.044Z,64.26
2024-01-21T15:16:09.046Z,66.42
2024-01-21T15:18:43.784Z,64.46
2024-01-21T15:21:12.881Z,63.82
2024-01-21T15:23:45.406Z,64.07
2024-01-21T15:26:16.195Z,64.62
2024-01-21T15:28:48.213Z,63.89
2024-01-21T15:31:18.914Z,64.58
2024-01-21T15:33:48.964Z,65.47
2024-01-21T15:36:19.843Z,66.54
2024-01-21T15:38:49.610Z,68.01
2024-01-21T15:41:19.241Z,67.90
2024-01-21T15:43:49.512Z,68.14
2024-01-21T15:46:20.438Z,69.59
2024-01-21T15:48:49.718Z,69.92
2024-01-21T15:51:19.430Z,70.80
2024-01-21T15:53:51.380Z,72.33
2024-01-21T15:56:24.283Z,74.33
2024-01-21T15:58:54.413Z,74.65
2024-01-21T16:01:25.745Z,74.19
2024-01-21T16:03:55.903Z,75.76
2024-01-21T16:06:24.951Z,75.22
2024-01-21T16:08:55.320Z,75.37
2024-01-21T16:11:26.251Z,75.88
2024-01-21T16:13:55.807Z,76.08
2024-01-21T16:16:27.561Z,76.28
2024-01-21T16:18:59.354Z,76.91
2024-01-21T16:21:32.096Z,76.80
2024-01-21T16:24:03.560Z,77.28
2024-01-21T16:26:35.987Z,77.93
2024-01-21T16:29:06.178Z,78.34
2024-01-21T16:31:39.604Z,78.53
2024-01-21T16:34:10.178Z,78.50
2024-01-21T16:36:39.503Z,78.58
2024-01-21T16:39:09.153Z,78.43
2024-01-21T16:41:38.526Z,79.29
2024-01-21T16:44:07.508Z,79.49
2024-01-21T16:46:37.837Z,80.10
2024-01-21T16:49:09.975Z,79.74
2024-01-21T16:51:48.334Z,80.05
2024-01-21T16:54:18.215Z,80.47
2024-01-21T16:56:47.422Z,80.49
2024-01-21T16:59:17.562Z,80.69
2024-01-21T17:01:56.707Z,81.39
2024-01-21T17:04:31.352Z,81.56
2024-01-21T17:09:30.641Z,81.80
2024-01-21T17:12:01.992Z,82.08
2024-01-21T17:14:33.725Z,81.76
2024-01-21T17:17:07.410Z,82.24
2024-01-21T17:19:36.951Z,82.10
2024-01-21T17:22:07.397Z,81.63
2024-01-21T17:24:37.916Z,81.80
2024-01-21T17:27:07.777Z,81.06
2024-01-21T17:29:37.481Z,80.79
2024-01-21T17:32:10.130Z,81.15
2024-01-21T17:34:41.097Z,80.52
2024-01-21T17:37:12.070Z,83.00
2024-01-21T17:39:41.090Z,79.40
2024-01-21T17:42:10.133Z,79.18
2024-01-21T17:44:39.123Z,79.73
2024-01-21T17:47:10.104Z,78.60
2024-01-21T17:49:39.230Z,78.24
2024-01-21T17:52:08.619Z,78.17
2024-01-21T17:54:39.601Z,78.92
2024-01-21T17:57:09.279Z,79.19
2024-01-21T17:59:38.713Z,77.64
2024-01-21T18:02:11.792Z,78.46
2024-01-21T18:04:41.251Z,78.48
2024-01-21T18:07:11.680Z,78.05
2024-01-21T18:09:40.691Z,78.24
2024-01-21T18:12:10.400Z,77.83
2024-01-21T18:14:40.607Z,77.42
2024-01-21T18:17:11.271Z,77.33
2024-01-21T18:19:43.449Z,77.21
2024-01-21T18:22:13.752Z,77.51
2024-01-21T18:24:45.534Z,78.36
2024-01-21T18:27:17.694Z,78.82
2024-01-21T18:29:46.894Z,79.33
2024-01-21T18:32:24.802Z,78.98
2024-01-21T18:34:55.471Z,80.04
2024-01-21T18:37:24.863Z,78.42
2024-01-21T18:39:54.301Z,79.08
2024-01-21T18:42:24.930Z,78.79
2024-01-21T18:44:55.085Z,79.54
2024-01-21T18:47:25.940Z,79.65
2024-01-21T18:49:56.258Z,79.85
2024-01-21T18:52:26.505Z,78.94
2024-01-21T18:54:58.204Z,79.67
2024-01-21T18:57:27.222Z,79.35
2024-01-21T18:59:57.001Z,79.39
2024-01-21T19:02:29.120Z,79.32
2024-01-21T19:04:58.388Z,79.27
2024-01-21T19:07:32.958Z,78.90
2024-01-21T19:10:07.032Z,78.81
2024-01-21T19:12:36.254Z,79.30
2024-01-21T19:15:09.437Z,79.40
2024-01-21T19:17:40.138Z,79.16
2024-01-21T19:20:12.140Z,80.15
2024-01-21T19:22:42.747Z,79.99
2024-01-21T19:25:12.025Z,80.88
2024-01-21T19:27:42.913Z,80.52
2024-01-21T19:30:13.913Z,82.16
2024-01-21T19:32:45.025Z,80.83
2024-01-21T19:35:15.470Z,81.53
2024-01-21T19:37:44.771Z,81.66
2024-01-21T19:40:15.875Z,80.85
2024-01-21T19:42:45.440Z,80.84
2024-01-21T19:45:16.064Z,81.20
2024-01-21T19:47:47.559Z,81.46
2024-01-21T19:50:17.303Z,81.44
2024-01-21T19:52:46.665Z,81.40
2024-01-21T19:55:16.246Z,81.10
2024-01-21T19:57:45.238Z,81.37
2024-01-21T20:00:15.471Z,80.75
2024-01-21T20:02:45.030Z,80.73
2024-01-21T20:05:20.888Z,79.46
2024-01-21T20:07:52.687Z,78.77
2024-01-21T20:10:22.596Z,78.81
2024-01-21T20:12:51.891Z,78.42
2024-01-21T20:15:21.359Z,79.06
2024-01-21T20:17:51.358Z,80.17
2024-01-21T20:20:22.253Z,81.33
2024-01-21T20:22:56.642Z,81.53
2024-01-21T20:25:26.050Z,81.95
2024-01-21T20:27:58.951Z,82.95
2024-01-21T20:30:28.679Z,82.81
2024-01-21T20:32:58.811Z,82.49
2024-01-21T20:35:31.824Z,82.76
2024-01-21T20:38:01.097Z,81.96
2024-01-21T20:40:33.461Z,81.92
2024-01-21T20:43:03.080Z,81.83
2024-01-21T20:45:32.153Z,81.89
2024-01-21T20:48:01.655Z,81.09
2024-01-21T20:50:32.953Z,82.03
2024-01-21T20:53:02.233Z,81.69
2024-01-21T20:55:34.496Z,82.31
2024-01-21T20:58:05.477Z,82.75
2024-01-21T21:00:35.603Z,82.87
2024-01-21T21:03:06.084Z,82.73
2024-01-21T21:05:37.749Z,83.17
2024-01-21T21:08:08.339Z,83.16
2024-01-21T21:10:37.629Z,83.66
2024-01-21T21:13:06.802Z,82.92
2024-01-21T21:15:37.830Z,83.29
2024-01-21T21:18:07.080Z,83.11
2024-01-21T21:20:37.476Z,83.33
2024-01-21T21:23:06.823Z,83.39
2024-01-21T21:25:36.548Z,83.06
2024-01-21T21:28:06.646Z,82.61
2024-01-21T21:30:35.566Z,82.14
2024-01-21T21:33:05.985Z,80.94
2024-01-21T21:35:39.977Z,79.36
2024-01-21T21:38:08.976Z,78.37
2024-01-21T21:40:38.516Z,77.73
2024-01-21T21:43:09.987Z,76.74
2024-01-21T21:45:40.583Z,76.59
2024-01-21T21:48:11.907Z,76.53
2024-01-21T21:50:43.053Z,77.39
2024-01-21T21:53:12.564Z,77.28
2024-01-21T21:55:46.718Z,77.29
2024-01-21T21:58:16.103Z,77.46
2024-01-21T22:00:45.663Z,77.33
2024-01-21T22:03:19.144Z,77.31
2024-01-21T22:05:50.286Z,76.99
2024-01-21T22:08:19.549Z,77.37
2024-01-21T22:10:48.720Z,77.06
2024-01-21T22:13:18.021Z,77.70
2024-01-21T22:15:47.388Z,78.50
2024-01-21T22:18:16.709Z,77.55
2024-01-21T22:20:46.197Z,78.15
2024-01-21T22:23:16.963Z,77.93
2024-01-21T22:25:47.056Z,78.30
2024-01-21T22:28:16.344Z,77.56
2024-01-21T22:30:46.053Z,77.02
2024-01-21T22:33:15.441Z,76.46
2024-01-21T22:35:44.815Z,75.67
2024-01-21T22:38:15.392Z,75.59
2024-01-21T22:40:48.272Z,75.62
2024-01-21T22:43:17.192Z,75.45
2024-01-21T22:45:46.405Z,75.31
2024-01-21T22:48:15.375Z,74.67
2024-01-21T22:50:45.416Z,73.92
2024-01-21T22:53:14.904Z,73.95
2024-01-21T22:55:44.608Z,73.84
2024-01-21T22:58:17.653Z,73.73
2024-01-21T23:00:46.878Z,73.42
2024-01-21T23:03:15.941Z,73.66
2024-01-21T23:05:46.624Z,73.39
2024-01-21T23:08:15.611Z,73.36
2024-01-21T23:10:44.891Z,73.28
2024-01-21T23:13:17.589Z,73.06
2024-01-21T23:15:46.838Z,73.30
2024-01-21T23:18:16.701Z,73.07
2024-01-21T23:20:45.878Z,73.12
2024-01-21T23:23:15.511Z,72.98
2024-01-21T23:25:44.499Z,72.82
2024-01-21T23:28:14.131Z,72.52
2024-01-21T23:30:45.056Z,71.90
2024-01-21T23:33:14.126Z,72.11
2024-01-21T23:35:43.767Z,72.00
2024-01-21T23:38:13.309Z,71.71
2024-01-21T23:40:43.072Z,71.56
2024-01-21T23:43:12.318Z,72.06
2024-01-21T23:45:41.364Z,72.14
2024-01-21T23:48:12.531Z,73.54
2024-01-21T23:50:42.213Z,73.38
2024-01-21T23:53:11.534Z,73.71
2024-01-21T23:55:40.475Z,73.76
2024-01-21T23:58:09.940Z,73.90
